sensor_id;sensor_type;location;lat;lon;timestamp;P1;durP1;ratioP1;P2;durP2;ratioP2
53253;SDS011;39148;53.332;6.922;2023-05-07T00:00:02;7.25;;;4.65;;
53253;SDS011;39148;53.332;6.922;2023-05-07T00:02:32;7.53;;;4.85;;
53253;SDS011;39148;53.332;6.922;2023-05-07T00:04:58;7.45;;;4.72;;
53253;SDS011;39148;53.332;6.922;2023-05-07T00:07:24;7.40;;;5.15;;
53253;SDS011;39148;53.332;6.922;2023-05-07T00:09:50;6.47;;;4.50;;
53253;SDS011;39148;53.332;6.922;2023-05-07T00:12:15;7.15;;;4.53;;
53253;SDS011;39148;53.332;6.922;2023-05-07T00:14:41;6.38;;;4.38;;
53253;SDS011;39148;53.332;6.922;2023-05-07T00:17:07;7.30;;;4.95;;
53253;SDS011;39148;53.332;6.922;2023-05-07T00:19:33;6.50;;;4.78;;
53253;SDS011;39148;53.332;6.922;2023-05-07T00:21:58;8.27;;;5.00;;
53253;SDS011;39148;53.332;6.922;2023-05-07T00:24:24;8.57;;;5.22;;
53253;SDS011;39148;53.332;6.922;2023-05-07T00:26:50;6.88;;;5.03;;
53253;SDS011;39148;53.332;6.922;2023-05-07T00:29:17;6.70;;;4.57;;
53253;SDS011;39148;53.332;6.922;2023-05-07T00:31:43;6.95;;;5.03;;
53253;SDS011;39148;53.332;6.922;2023-05-07T00:34:09;8.02;;;4.78;;
53253;SDS011;39148;53.332;6.922;2023-05-07T00:36:35;8.13;;;5.32;;
53253;SDS011;39148;53.332;6.922;2023-05-07T00:39:01;8.60;;;5.50;;
53253;SDS011;39148;53.332;6.922;2023-05-07T00:41:29;6.82;;;4.70;;
53253;SDS011;39148;53.332;6.922;2023-05-07T00:43:55;7.63;;;5.32;;
53253;SDS011;39148;53.332;6.922;2023-05-07T00:46:22;8.20;;;5.82;;
53253;SDS011;39148;53.332;6.922;2023-05-07T00:48:49;7.95;;;5.20;;
53253;SDS011;39148;53.332;6.922;2023-05-07T00:51:16;8.23;;;5.55;;
53253;SDS011;39148;53.332;6.922;2023-05-07T00:53:43;7.05;;;5.43;;
53253;SDS011;39148;53.332;6.922;2023-05-07T00:56:09;7.25;;;5.22;;
53253;SDS011;39148;53.332;6.922;2023-05-07T00:58:36;7.40;;;5.32;;
53253;SDS011;39148;53.332;6.922;2023-05-07T01:01:02;8.73;;;5.72;;
53253;SDS011;39148;53.332;6.922;2023-05-07T01:03:28;7.38;;;5.68;;
53253;SDS011;39148;53.332;6.922;2023-05-07T01:05:55;8.20;;;6.07;;
53253;SDS011;39148;53.332;6.922;2023-05-07T01:08:22;8.23;;;6.10;;
53253;SDS011;39148;53.332;6.922;2023-05-07T01:10:51;8.70;;;5.60;;
53253;SDS011;39148;53.332;6.922;2023-05-07T01:13:18;8.10;;;5.95;;
53253;SDS011;39148;53.332;6.922;2023-05-07T01:15:44;9.13;;;6.60;;
53253;SDS011;39148;53.332;6.922;2023-05-07T01:18:10;7.63;;;5.32;;
53253;SDS011;39148;53.332;6.922;2023-05-07T01:20:36;8.55;;;5.93;;
53253;SDS011;39148;53.332;6.922;2023-05-07T01:23:02;8.07;;;5.68;;
53253;SDS011;39148;53.332;6.922;2023-05-07T01:25:28;7.50;;;5.72;;
53253;SDS011;39148;53.332;6.922;2023-05-07T01:27:55;8.10;;;5.85;;
53253;SDS011;39148;53.332;6.922;2023-05-07T01:30:21;9.13;;;6.00;;
53253;SDS011;39148;53.332;6.922;2023-05-07T01:32:56;8.55;;;6.00;;
53253;SDS011;39148;53.332;6.922;2023-05-07T01:35:37;8.50;;;6.25;;
53253;SDS011;39148;53.332;6.922;2023-05-07T01:38:05;9.43;;;6.43;;
53253;SDS011;39148;53.332;6.922;2023-05-07T01:40:32;8.70;;;6.43;;
53253;SDS011;39148;53.332;6.922;2023-05-07T01:42:59;8.55;;;6.43;;
53253;SDS011;39148;53.332;6.922;2023-05-07T01:45:25;8.73;;;6.32;;
53253;SDS011;39148;53.332;6.922;2023-05-07T01:47:51;9.07;;;6.72;;
53253;SDS011;39148;53.332;6.922;2023-05-07T01:50:18;9.07;;;6.50;;
53253;SDS011;39148;53.332;6.922;2023-05-07T01:52:45;9.73;;;6.95;;
53253;SDS011;39148;53.332;6.922;2023-05-07T01:55:12;9.65;;;7.18;;
53253;SDS011;39148;53.332;6.922;2023-05-07T01:57:38;9.75;;;6.70;;
53253;SDS011;39148;53.332;6.922;2023-05-07T02:00:05;9.57;;;6.80;;
53253;SDS011;39148;53.332;6.922;2023-05-07T02:02:31;9.68;;;7.60;;
53253;SDS011;39148;53.332;6.922;2023-05-07T02:04:57;8.98;;;6.78;;
53253;SDS011;39148;53.332;6.922;2023-05-07T02:07:23;9.77;;;7.10;;
53253;SDS011;39148;53.332;6.922;2023-05-07T02:09:49;10.35;;;7.45;;
53253;SDS011;39148;53.332;6.922;2023-05-07T02:12:14;9.52;;;7.13;;
53253;SDS011;39148;53.332;6.922;2023-05-07T02:14:41;9.65;;;7.53;;
53253;SDS011;39148;53.332;6.922;2023-05-07T02:17:07;10.38;;;7.25;;
53253;SDS011;39148;53.332;6.922;2023-05-07T02:19:32;9.98;;;6.88;;
53253;SDS011;39148;53.332;6.922;2023-05-07T02:21:58;9.90;;;7.00;;
53253;SDS011;39148;53.332;6.922;2023-05-07T02:24:24;9.38;;;7.18;;
53253;SDS011;39148;53.332;6.922;2023-05-07T02:26:49;8.82;;;6.65;;
53253;SDS011;39148;53.332;6.922;2023-05-07T02:29:15;10.30;;;7.18;;
53253;SDS011;39148;53.332;6.922;2023-05-07T02:31:41;10.43;;;7.00;;
53253;SDS011;39148;53.332;6.922;2023-05-07T02:34:06;10.23;;;7.47;;
53253;SDS011;39148;53.332;6.922;2023-05-07T02:36:32;10.02;;;7.38;;
53253;SDS011;39148;53.332;6.922;2023-05-07T02:38:57;11.55;;;8.05;;
53253;SDS011;39148;53.332;6.922;2023-05-07T02:41:23;9.43;;;7.10;;
53253;SDS011;39148;53.332;6.922;2023-05-07T02:43:49;11.02;;;8.32;;
53253;SDS011;39148;53.332;6.922;2023-05-07T02:46:15;10.00;;;7.97;;
53253;SDS011;39148;53.332;6.922;2023-05-07T02:48:41;10.55;;;7.70;;
53253;SDS011;39148;53.332;6.922;2023-05-07T02:51:06;10.95;;;8.63;;
53253;SDS011;39148;53.332;6.922;2023-05-07T02:53:32;10.43;;;8.15;;
53253;SDS011;39148;53.332;6.922;2023-05-07T02:55:59;11.70;;;8.90;;
53253;SDS011;39148;53.332;6.922;2023-05-07T02:58:27;10.15;;;8.00;;
53253;SDS011;39148;53.332;6.922;2023-05-07T03:00:53;10.55;;;8.35;;
53253;SDS011;39148;53.332;6.922;2023-05-07T03:03:22;11.55;;;8.38;;
53253;SDS011;39148;53.332;6.922;2023-05-07T03:05:48;10.82;;;8.30;;
53253;SDS011;39148;53.332;6.922;2023-05-07T03:08:14;11.43;;;8.75;;
53253;SDS011;39148;53.332;6.922;2023-05-07T03:10:40;10.93;;;7.90;;
53253;SDS011;39148;53.332;6.922;2023-05-07T03:13:06;11.60;;;8.95;;
53253;SDS011;39148;53.332;6.922;2023-05-07T03:15:31;12.30;;;8.77;;
53253;SDS011;39148;53.332;6.922;2023-05-07T03:17:57;12.38;;;8.73;;
53253;SDS011;39148;53.332;6.922;2023-05-07T03:20:23;11.45;;;8.70;;
53253;SDS011;39148;53.332;6.922;2023-05-07T03:22:48;11.82;;;9.32;;
53253;SDS011;39148;53.332;6.922;2023-05-07T03:25:15;12.05;;;8.90;;
53253;SDS011;39148;53.332;6.922;2023-05-07T03:27:40;12.80;;;9.30;;
53253;SDS011;39148;53.332;6.922;2023-05-07T03:30:09;11.63;;;8.95;;
53253;SDS011;39148;53.332;6.922;2023-05-07T03:32:36;11.93;;;9.05;;
53253;SDS011;39148;53.332;6.922;2023-05-07T03:35:01;10.95;;;8.43;;
53253;SDS011;39148;53.332;6.922;2023-05-07T03:37:27;13.18;;;9.73;;
53253;SDS011;39148;53.332;6.922;2023-05-07T03:39:53;13.15;;;9.40;;
53253;SDS011;39148;53.332;6.922;2023-05-07T03:42:19;11.25;;;8.98;;
53253;SDS011;39148;53.332;6.922;2023-05-07T03:44:45;11.63;;;8.63;;
53253;SDS011;39148;53.332;6.922;2023-05-07T03:47:11;11.73;;;9.25;;
53253;SDS011;39148;53.332;6.922;2023-05-07T03:49:38;12.00;;;9.45;;
53253;SDS011;39148;53.332;6.922;2023-05-07T03:52:04;12.90;;;9.50;;
53253;SDS011;39148;53.332;6.922;2023-05-07T03:54:31;13.02;;;9.80;;
53253;SDS011;39148;53.332;6.922;2023-05-07T03:56:57;12.57;;;10.07;;
53253;SDS011;39148;53.332;6.922;2023-05-07T03:59:22;12.48;;;10.15;;
53253;SDS011;39148;53.332;6.922;2023-05-07T04:01:48;12.27;;;9.68;;
53253;SDS011;39148;53.332;6.922;2023-05-07T04:04:14;10.88;;;8.70;;
53253;SDS011;39148;53.332;6.922;2023-05-07T04:06:40;12.52;;;9.30;;
53253;SDS011;39148;53.332;6.922;2023-05-07T04:09:07;10.23;;;8.80;;
53253;SDS011;39148;53.332;6.922;2023-05-07T04:11:32;12.63;;;9.38;;
53253;SDS011;39148;53.332;6.922;2023-05-07T04:13:58;11.43;;;9.10;;
53253;SDS011;39148;53.332;6.922;2023-05-07T04:16:24;12.18;;;9.57;;
53253;SDS011;39148;53.332;6.922;2023-05-07T04:18:50;10.82;;;9.27;;
53253;SDS011;39148;53.332;6.922;2023-05-07T04:21:16;12.45;;;8.93;;
53253;SDS011;39148;53.332;6.922;2023-05-07T04:23:43;11.48;;;9.18;;
53253;SDS011;39148;53.332;6.922;2023-05-07T04:26:09;13.13;;;9.50;;
53253;SDS011;39148;53.332;6.922;2023-05-07T04:28:36;11.98;;;9.23;;
53253;SDS011;39148;53.332;6.922;2023-05-07T04:31:02;10.32;;;8.55;;
53253;SDS011;39148;53.332;6.922;2023-05-07T04:33:27;14.63;;;10.07;;
53253;SDS011;39148;53.332;6.922;2023-05-07T04:35:53;11.68;;;9.30;;
53253;SDS011;39148;53.332;6.922;2023-05-07T04:38:19;11.20;;;9.20;;
53253;SDS011;39148;53.332;6.922;2023-05-07T04:40:45;12.60;;;9.63;;
53253;SDS011;39148;53.332;6.922;2023-05-07T04:43:12;12.18;;;9.55;;
53253;SDS011;39148;53.332;6.922;2023-05-07T04:45:38;11.32;;;8.95;;
53253;SDS011;39148;53.332;6.922;2023-05-07T04:48:06;12.05;;;8.88;;
53253;SDS011;39148;53.332;6.922;2023-05-07T04:50:32;12.20;;;9.73;;
53253;SDS011;39148;53.332;6.922;2023-05-07T04:52:58;12.43;;;9.25;;
53253;SDS011;39148;53.332;6.922;2023-05-07T04:55:24;12.05;;;9.00;;
53253;SDS011;39148;53.332;6.922;2023-05-07T04:57:51;11.50;;;9.20;;
53253;SDS011;39148;53.332;6.922;2023-05-07T05:00:17;11.27;;;9.05;;
53253;SDS011;39148;53.332;6.922;2023-05-07T05:02:44;11.52;;;8.65;;
53253;SDS011;39148;53.332;6.922;2023-05-07T05:05:10;12.18;;;9.20;;
53253;SDS011;39148;53.332;6.922;2023-05-07T05:07:36;11.30;;;9.13;;
53253;SDS011;39148;53.332;6.922;2023-05-07T05:10:02;11.20;;;9.23;;
53253;SDS011;39148;53.332;6.922;2023-05-07T05:12:30;11.18;;;9.00;;
53253;SDS011;39148;53.332;6.922;2023-05-07T05:14:56;12.63;;;8.73;;
53253;SDS011;39148;53.332;6.922;2023-05-07T05:17:22;11.07;;;9.02;;
53253;SDS011;39148;53.332;6.922;2023-05-07T05:19:48;11.73;;;9.52;;
53253;SDS011;39148;53.332;6.922;2023-05-07T05:22:14;10.73;;;8.20;;
53253;SDS011;39148;53.332;6.922;2023-05-07T05:24:40;9.65;;;8.07;;
53253;SDS011;39148;53.332;6.922;2023-05-07T05:27:06;10.90;;;8.52;;
53253;SDS011;39148;53.332;6.922;2023-05-07T05:29:32;11.93;;;9.07;;
53253;SDS011;39148;53.332;6.922;2023-05-07T05:31:58;11.30;;;8.93;;
53253;SDS011;39148;53.332;6.922;2023-05-07T05:34:24;11.32;;;8.80;;
53253;SDS011;39148;53.332;6.922;2023-05-07T05:36:50;11.00;;;8.60;;
53253;SDS011;39148;53.332;6.922;2023-05-07T05:39:17;10.73;;;8.40;;
53253;SDS011;39148;53.332;6.922;2023-05-07T05:41:42;11.25;;;8.00;;
53253;SDS011;39148;53.332;6.922;2023-05-07T05:44:08;11.18;;;8.15;;
53253;SDS011;39148;53.332;6.922;2023-05-07T05:46:34;10.70;;;8.35;;
53253;SDS011;39148;53.332;6.922;2023-05-07T05:49:00;11.57;;;8.50;;
53253;SDS011;39148;53.332;6.922;2023-05-07T05:51:26;11.68;;;8.82;;
53253;SDS011;39148;53.332;6.922;2023-05-07T05:53:52;11.40;;;8.55;;
53253;SDS011;39148;53.332;6.922;2023-05-07T05:56:18;9.93;;;8.10;;
53253;SDS011;39148;53.332;6.922;2023-05-07T05:58:43;9.57;;;8.07;;
53253;SDS011;39148;53.332;6.922;2023-05-07T06:01:10;10.75;;;8.43;;
53253;SDS011;39148;53.332;6.922;2023-05-07T06:03:37;10.15;;;8.38;;
53253;SDS011;39148;53.332;6.922;2023-05-07T06:06:03;10.50;;;8.32;;
53253;SDS011;39148;53.332;6.922;2023-05-07T06:08:29;10.80;;;8.07;;
53253;SDS011;39148;53.332;6.922;2023-05-07T06:10:55;10.10;;;7.82;;
53253;SDS011;39148;53.332;6.922;2023-05-07T06:13:21;10.38;;;8.45;;
53253;SDS011;39148;53.332;6.922;2023-05-07T06:15:47;9.77;;;7.53;;
53253;SDS011;39148;53.332;6.922;2023-05-07T06:18:14;9.70;;;7.70;;
53253;SDS011;39148;53.332;6.922;2023-05-07T06:20:39;10.23;;;7.90;;
53253;SDS011;39148;53.332;6.922;2023-05-07T06:23:06;10.88;;;8.75;;
53253;SDS011;39148;53.332;6.922;2023-05-07T06:25:32;10.38;;;7.75;;
53253;SDS011;39148;53.332;6.922;2023-05-07T06:27:58;10.32;;;8.10;;
53253;SDS011;39148;53.332;6.922;2023-05-07T06:30:23;10.60;;;8.48;;
53253;SDS011;39148;53.332;6.922;2023-05-07T06:32:49;10.82;;;8.30;;
53253;SDS011;39148;53.332;6.922;2023-05-07T06:35:15;9.93;;;8.05;;
53253;SDS011;39148;53.332;6.922;2023-05-07T06:37:41;10.82;;;8.55;;
53253;SDS011;39148;53.332;6.922;2023-05-07T06:40:10;10.90;;;8.70;;
53253;SDS011;39148;53.332;6.922;2023-05-07T06:42:36;10.80;;;8.30;;
53253;SDS011;39148;53.332;6.922;2023-05-07T06:45:02;9.63;;;8.10;;
53253;SDS011;39148;53.332;6.922;2023-05-07T06:47:29;10.43;;;8.77;;
53253;SDS011;39148;53.332;6.922;2023-05-07T06:49:55;10.90;;;8.63;;
53253;SDS011;39148;53.332;6.922;2023-05-07T06:52:20;10.43;;;8.32;;
53253;SDS011;39148;53.332;6.922;2023-05-07T06:54:46;11.45;;;8.20;;
53253;SDS011;39148;53.332;6.922;2023-05-07T06:57:12;10.75;;;8.40;;
53253;SDS011;39148;53.332;6.922;2023-05-07T06:59:38;11.02;;;8.15;;
53253;SDS011;39148;53.332;6.922;2023-05-07T07:02:04;10.45;;;8.32;;
53253;SDS011;39148;53.332;6.922;2023-05-07T07:04:30;10.98;;;8.65;;
53253;SDS011;39148;53.332;6.922;2023-05-07T07:06:56;12.38;;;8.45;;
53253;SDS011;39148;53.332;6.922;2023-05-07T07:09:22;10.40;;;8.60;;
53253;SDS011;39148;53.332;6.922;2023-05-07T07:11:48;11.40;;;9.20;;
53253;SDS011;39148;53.332;6.922;2023-05-07T07:14:14;10.73;;;8.77;;
53253;SDS011;39148;53.332;6.922;2023-05-07T07:16:40;11.55;;;8.85;;
53253;SDS011;39148;53.332;6.922;2023-05-07T07:19:06;10.85;;;8.70;;
53253;SDS011;39148;53.332;6.922;2023-05-07T07:21:31;11.48;;;9.18;;
53253;SDS011;39148;53.332;6.922;2023-05-07T07:23:57;10.85;;;8.30;;
53253;SDS011;39148;53.332;6.922;2023-05-07T07:26:23;10.82;;;9.20;;
53253;SDS011;39148;53.332;6.922;2023-05-07T07:28:48;10.95;;;8.35;;
53253;SDS011;39148;53.332;6.922;2023-05-07T07:31:14;12.30;;;9.20;;
53253;SDS011;39148;53.332;6.922;2023-05-07T07:33:40;10.90;;;8.68;;
53253;SDS011;39148;53.332;6.922;2023-05-07T07:36:06;12.05;;;9.93;;
53253;SDS011;39148;53.332;6.922;2023-05-07T07:38:33;11.35;;;9.25;;
53253;SDS011;39148;53.332;6.922;2023-05-07T07:40:59;11.05;;;9.02;;
53253;SDS011;39148;53.332;6.922;2023-05-07T07:43:26;11.13;;;8.70;;
53253;SDS011;39148;53.332;6.922;2023-05-07T07:45:52;10.93;;;8.88;;
53253;SDS011;39148;53.332;6.922;2023-05-07T07:48:18;11.00;;;8.38;;
53253;SDS011;39148;53.332;6.922;2023-05-07T07:50:44;11.30;;;8.63;;
53253;SDS011;39148;53.332;6.922;2023-05-07T07:53:13;11.27;;;8.95;;
53253;SDS011;39148;53.332;6.922;2023-05-07T07:55:39;11.52;;;9.43;;
53253;SDS011;39148;53.332;6.922;2023-05-07T07:58:05;11.82;;;9.13;;
53253;SDS011;39148;53.332;6.922;2023-05-07T08:00:31;12.90;;;9.73;;
53253;SDS011;39148;53.332;6.922;2023-05-07T08:02:57;10.38;;;8.27;;
53253;SDS011;39148;53.332;6.922;2023-05-07T08:05:23;11.90;;;9.38;;
53253;SDS011;39148;53.332;6.922;2023-05-07T08:07:50;11.40;;;8.93;;
53253;SDS011;39148;53.332;6.922;2023-05-07T08:10:17;12.32;;;9.70;;
53253;SDS011;39148;53.332;6.922;2023-05-07T08:12:47;11.70;;;9.27;;
53253;SDS011;39148;53.332;6.922;2023-05-07T08:15:14;11.35;;;8.98;;
53253;SDS011;39148;53.332;6.922;2023-05-07T08:17:40;12.07;;;9.15;;
53253;SDS011;39148;53.332;6.922;2023-05-07T08:20:07;11.23;;;9.48;;
53253;SDS011;39148;53.332;6.922;2023-05-07T08:22:36;12.52;;;9.75;;
53253;SDS011;39148;53.332;6.922;2023-05-07T08:25:02;12.30;;;9.70;;
53253;SDS011;39148;53.332;6.922;2023-05-07T08:27:28;12.05;;;9.60;;
53253;SDS011;39148;53.332;6.922;2023-05-07T08:29:54;12.95;;;10.18;;
53253;SDS011;39148;53.332;6.922;2023-05-07T08:32:20;11.60;;;9.23;;
53253;SDS011;39148;53.332;6.922;2023-05-07T08:34:47;11.48;;;9.18;;
53253;SDS011;39148;53.332;6.922;2023-05-07T08:37:13;12.05;;;9.43;;
53253;SDS011;39148;53.332;6.922;2023-05-07T08:39:39;13.73;;;10.18;;
53253;SDS011;39148;53.332;6.922;2023-05-07T08:42:05;12.65;;;9.38;;
53253;SDS011;39148;53.332;6.922;2023-05-07T08:44:34;11.32;;;9.45;;
53253;SDS011;39148;53.332;6.922;2023-05-07T08:47:02;12.32;;;9.30;;
53253;SDS011;39148;53.332;6.922;2023-05-07T08:49:32;11.68;;;9.35;;
53253;SDS011;39148;53.332;6.922;2023-05-07T08:51:59;13.25;;;10.38;;
53253;SDS011;39148;53.332;6.922;2023-05-07T08:54:25;13.20;;;10.07;;
53253;SDS011;39148;53.332;6.922;2023-05-07T08:56:51;12.35;;;9.95;;
53253;SDS011;39148;53.332;6.922;2023-05-07T08:59:17;11.65;;;9.70;;
53253;SDS011;39148;53.332;6.922;2023-05-07T09:01:43;11.80;;;10.00;;
53253;SDS011;39148;53.332;6.922;2023-05-07T09:04:09;11.68;;;10.00;;
53253;SDS011;39148;53.332;6.922;2023-05-07T09:06:35;12.63;;;10.05;;
53253;SDS011;39148;53.332;6.922;2023-05-07T09:09:02;13.15;;;10.00;;
53253;SDS011;39148;53.332;6.922;2023-05-07T09:11:30;11.68;;;9.60;;
53253;SDS011;39148;53.332;6.922;2023-05-07T09:13:56;12.95;;;10.25;;
53253;SDS011;39148;53.332;6.922;2023-05-07T09:16:24;12.68;;;9.98;;
53253;SDS011;39148;53.332;6.922;2023-05-07T09:18:51;12.70;;;10.00;;
53253;SDS011;39148;53.332;6.922;2023-05-07T09:21:18;11.68;;;9.88;;
53253;SDS011;39148;53.332;6.922;2023-05-07T09:23:45;11.27;;;9.88;;
53253;SDS011;39148;53.332;6.922;2023-05-07T09:26:15;11.75;;;9.60;;
53253;SDS011;39148;53.332;6.922;2023-05-07T09:28:41;13.05;;;10.25;;
53253;SDS011;39148;53.332;6.922;2023-05-07T09:31:07;12.10;;;9.80;;
53253;SDS011;39148;53.332;6.922;2023-05-07T09:33:34;12.38;;;9.90;;
53253;SDS011;39148;53.332;6.922;2023-05-07T09:36:04;13.52;;;10.50;;
53253;SDS011;39148;53.332;6.922;2023-05-07T09:38:32;12.00;;;9.73;;
53253;SDS011;39148;53.332;6.922;2023-05-07T09:41:11;12.70;;;10.18;;
53253;SDS011;39148;53.332;6.922;2023-05-07T09:43:38;12.65;;;9.85;;
53253;SDS011;39148;53.332;6.922;2023-05-07T09:46:48;13.05;;;10.60;;
53253;SDS011;39148;53.332;6.922;2023-05-07T09:48:57;12.27;;;10.53;;
53253;SDS011;39148;53.332;6.922;2023-05-07T09:51:25;13.05;;;10.80;;
53253;SDS011;39148;53.332;6.922;2023-05-07T09:53:54;11.63;;;10.10;;
53253;SDS011;39148;53.332;6.922;2023-05-07T09:56:22;13.13;;;9.85;;
53253;SDS011;39148;53.332;6.922;2023-05-07T09:58:49;11.50;;;10.30;;
53253;SDS011;39148;53.332;6.922;2023-05-07T10:01:17;11.85;;;9.77;;
53253;SDS011;39148;53.332;6.922;2023-05-07T10:03:47;12.05;;;10.30;;
53253;SDS011;39148;53.332;6.922;2023-05-07T10:06:15;11.98;;;9.93;;
53253;SDS011;39148;53.332;6.922;2023-05-07T10:08:42;12.00;;;10.68;;
53253;SDS011;39148;53.332;6.922;2023-05-07T10:11:08;13.80;;;10.80;;
53253;SDS011;39148;53.332;6.922;2023-05-07T10:13:35;12.32;;;10.38;;
53253;SDS011;39148;53.332;6.922;2023-05-07T10:16:03;12.98;;;10.75;;
53253;SDS011;39148;53.332;6.922;2023-05-07T10:18:30;11.00;;;9.40;;
53253;SDS011;39148;53.332;6.922;2023-05-07T10:23:33;11.60;;;9.40;;
53253;SDS011;39148;53.332;6.922;2023-05-07T10:26:00;12.52;;;10.75;;
53253;SDS011;39148;53.332;6.922;2023-05-07T10:28:29;11.85;;;10.65;;
53253;SDS011;39148;53.332;6.922;2023-05-07T10:33:48;12.02;;;10.57;;
53253;SDS011;39148;53.332;6.922;2023-05-07T10:36:16;12.90;;;10.35;;
53253;SDS011;39148;53.332;6.922;2023-05-07T10:38:42;11.80;;;10.20;;
53253;SDS011;39148;53.332;6.922;2023-05-07T10:41:08;11.98;;;10.48;;
53253;SDS011;39148;53.332;6.922;2023-05-07T10:43:38;12.27;;;10.73;;
53253;SDS011;39148;53.332;6.922;2023-05-07T10:51:27;12.23;;;10.93;;
53253;SDS011;39148;53.332;6.922;2023-05-07T10:56:39;13.15;;;10.95;;
53253;SDS011;39148;53.332;6.922;2023-05-07T11:01:55;12.77;;;11.38;;
53253;SDS011;39148;53.332;6.922;2023-05-07T11:04:22;12.82;;;11.45;;
53253;SDS011;39148;53.332;6.922;2023-05-07T11:13:02;13.35;;;11.55;;
53253;SDS011;39148;53.332;6.922;2023-05-07T11:15:06;13.05;;;11.70;;
53253;SDS011;39148;53.332;6.922;2023-05-07T11:17:34;12.10;;;10.77;;
53253;SDS011;39148;53.332;6.922;2023-05-07T11:20:01;12.55;;;11.20;;
53253;SDS011;39148;53.332;6.922;2023-05-07T11:24:57;12.43;;;11.13;;
53253;SDS011;39148;53.332;6.922;2023-05-07T11:27:28;12.77;;;11.48;;
53253;SDS011;39148;53.332;6.922;2023-05-07T11:29:55;12.90;;;11.60;;
53253;SDS011;39148;53.332;6.922;2023-05-07T11:32:27;13.15;;;11.57;;
53253;SDS011;39148;53.332;6.922;2023-05-07T11:34:54;12.80;;;11.40;;
53253;SDS011;39148;53.332;6.922;2023-05-07T11:37:21;12.80;;;11.50;;
53253;SDS011;39148;53.332;6.922;2023-05-07T11:39:48;13.27;;;11.88;;
53253;SDS011;39148;53.332;6.922;2023-05-07T11:42:30;12.52;;;11.27;;
53253;SDS011;39148;53.332;6.922;2023-05-07T11:44:57;12.70;;;11.40;;
53253;SDS011;39148;53.332;6.922;2023-05-07T11:47:23;12.73;;;11.43;;
53253;SDS011;39148;53.332;6.922;2023-05-07T11:49:53;13.05;;;11.38;;
53253;SDS011;39148;53.332;6.922;2023-05-07T11:52:20;13.95;;;12.57;;
53253;SDS011;39148;53.332;6.922;2023-05-07T11:54:56;12.23;;;10.93;;
53253;SDS011;39148;53.332;6.922;2023-05-07T11:57:24;13.30;;;11.88;;
53253;SDS011;39148;53.332;6.922;2023-05-07T11:59:56;13.13;;;11.73;;
53253;SDS011;39148;53.332;6.922;2023-05-07T12:02:23;13.07;;;11.73;;
53253;SDS011;39148;53.332;6.922;2023-05-07T12:04:50;12.60;;;11.27;;
53253;SDS011;39148;53.332;6.922;2023-05-07T12:07:16;12.75;;;11.45;;
53253;SDS011;39148;53.332;6.922;2023-05-07T12:09:43;12.57;;;11.27;;
53253;SDS011;39148;53.332;6.922;2023-05-07T12:12:10;13.07;;;11.68;;
53253;SDS011;39148;53.332;6.922;2023-05-07T12:14:40;13.20;;;11.90;;
53253;SDS011;39148;53.332;6.922;2023-05-07T12:17:10;12.88;;;11.57;;
53253;SDS011;39148;53.332;6.922;2023-05-07T12:19:37;12.68;;;11.38;;
53253;SDS011;39148;53.332;6.922;2023-05-07T12:22:04;12.93;;;11.50;;
53253;SDS011;39148;53.332;6.922;2023-05-07T12:24:45;13.25;;;11.95;;
53253;SDS011;39148;53.332;6.922;2023-05-07T12:27:12;13.05;;;11.75;;
53253;SDS011;39148;53.332;6.922;2023-05-07T12:29:39;13.30;;;12.00;;
53253;SDS011;39148;53.332;6.922;2023-05-07T12:32:06;13.13;;;11.82;;
53253;SDS011;39148;53.332;6.922;2023-05-07T12:34:32;13.45;;;12.02;;
53253;SDS011;39148;53.332;6.922;2023-05-07T12:37:01;13.88;;;12.48;;
53253;SDS011;39148;53.332;6.922;2023-05-07T12:39:28;12.75;;;11.55;;
53253;SDS011;39148;53.332;6.922;2023-05-07T12:41:55;13.55;;;12.18;;
53253;SDS011;39148;53.332;6.922;2023-05-07T12:44:22;12.90;;;11.60;;
53253;SDS011;39148;53.332;6.922;2023-05-07T12:46:49;12.15;;;10.95;;
53253;SDS011;39148;53.332;6.922;2023-05-07T12:49:15;13.02;;;11.65;;
53253;SDS011;39148;53.332;6.922;2023-05-07T12:51:43;14.00;;;12.63;;
53253;SDS011;39148;53.332;6.922;2023-05-07T12:54:09;13.25;;;11.95;;
53253;SDS011;39148;53.332;6.922;2023-05-07T12:56:37;14.25;;;12.85;;
53253;SDS011;39148;53.332;6.922;2023-05-07T12:59:03;13.15;;;11.85;;
53253;SDS011;39148;53.332;6.922;2023-05-07T13:01:29;14.30;;;12.85;;
53253;SDS011;39148;53.332;6.922;2023-05-07T13:03:57;12.65;;;11.45;;
53253;SDS011;39148;53.332;6.922;2023-05-07T13:06:27;13.40;;;12.10;;
53253;SDS011;39148;53.332;6.922;2023-05-07T13:08:53;12.73;;;11.52;;
53253;SDS011;39148;53.332;6.922;2023-05-07T13:11:19;13.38;;;11.98;;
53253;SDS011;39148;53.332;6.922;2023-05-07T13:13:46;13.02;;;11.73;;
53253;SDS011;39148;53.332;6.922;2023-05-07T13:16:12;13.45;;;12.18;;
53253;SDS011;39148;53.332;6.922;2023-05-07T13:18:38;13.35;;;12.05;;
53253;SDS011;39148;53.332;6.922;2023-05-07T13:21:05;13.27;;;11.95;;
53253;SDS011;39148;53.332;6.922;2023-05-07T13:23:31;13.20;;;11.90;;
53253;SDS011;39148;53.332;6.922;2023-05-07T13:25:56;13.10;;;11.80;;
53253;SDS011;39148;53.332;6.922;2023-05-07T13:28:23;12.95;;;11.65;;
53253;SDS011;39148;53.332;6.922;2023-05-07T13:30:49;13.13;;;11.82;;
53253;SDS011;39148;53.332;6.922;2023-05-07T13:33:17;13.27;;;11.95;;
53253;SDS011;39148;53.332;6.922;2023-05-07T13:35:42;13.10;;;11.80;;
53253;SDS011;39148;53.332;6.922;2023-05-07T13:38:09;13.48;;;12.18;;
53253;SDS011;39148;53.332;6.922;2023-05-07T13:40:35;13.10;;;11.70;;
53253;SDS011;39148;53.332;6.922;2023-05-07T13:43:00;12.85;;;11.65;;
53253;SDS011;39148;53.332;6.922;2023-05-07T13:45:29;11.85;;;10.68;;
53253;SDS011;39148;53.332;6.922;2023-05-07T13:47:55;12.82;;;11.63;;
53253;SDS011;39148;53.332;6.922;2023-05-07T13:50:21;12.82;;;11.63;;
53253;SDS011;39148;53.332;6.922;2023-05-07T13:52:47;13.10;;;11.80;;
53253;SDS011;39148;53.332;6.922;2023-05-07T13:55:23;12.52;;;11.32;;
53253;SDS011;39148;53.332;6.922;2023-05-07T13:57:54;12.60;;;11.40;;
53253;SDS011;39148;53.332;6.922;2023-05-07T14:00:22;12.68;;;11.45;;
53253;SDS011;39148;53.332;6.922;2023-05-07T14:02:48;12.48;;;11.27;;
53253;SDS011;39148;53.332;6.922;2023-05-07T14:05:13;13.20;;;11.95;;
53253;SDS011;39148;53.332;6.922;2023-05-07T14:07:39;12.70;;;11.50;;
53253;SDS011;39148;53.332;6.922;2023-05-07T14:10:06;13.20;;;11.90;;
53253;SDS011;39148;53.332;6.922;2023-05-07T14:12:32;12.43;;;11.32;;
53253;SDS011;39148;53.332;6.922;2023-05-07T14:14:58;12.35;;;11.15;;
53253;SDS011;39148;53.332;6.922;2023-05-07T14:17:24;12.68;;;11.48;;
53253;SDS011;39148;53.332;6.922;2023-05-07T14:19:52;12.20;;;11.00;;
53253;SDS011;39148;53.332;6.922;2023-05-07T14:22:21;11.80;;;10.70;;
53253;SDS011;39148;53.332;6.922;2023-05-07T14:24:47;12.70;;;11.50;;
53253;SDS011;39148;53.332;6.922;2023-05-07T14:27:14;12.55;;;11.35;;
53253;SDS011;39148;53.332;6.922;2023-05-07T14:29:40;11.70;;;10.60;;
53253;SDS011;39148;53.332;6.922;2023-05-07T14:32:07;11.23;;;10.23;;
53253;SDS011;39148;53.332;6.922;2023-05-07T14:34:33;12.27;;;11.15;;
53253;SDS011;39148;53.332;6.922;2023-05-07T14:36:59;12.65;;;11.45;;
53253;SDS011;39148;53.332;6.922;2023-05-07T14:39:25;11.98;;;10.88;;
53253;SDS011;39148;53.332;6.922;2023-05-07T14:41:52;10.95;;;9.95;;
53253;SDS011;39148;53.332;6.922;2023-05-07T14:44:20;12.40;;;11.20;;
53253;SDS011;39148;53.332;6.922;2023-05-07T14:46:46;11.50;;;10.40;;
53253;SDS011;39148;53.332;6.922;2023-05-07T14:49:11;11.93;;;10.82;;
53253;SDS011;39148;53.332;6.922;2023-05-07T14:51:42;11.47;;;10.40;;
53253;SDS011;39148;53.332;6.922;2023-05-07T14:54:12;11.50;;;10.50;;